Data for 06/02/2014

Time Sea-Level Adjusted Pressure Absolute Pressure Temperature Relative Humidity Dew Point   
(mb) (inHg) (mb) (inHg) (C) (F) (%) (C) (F)
00:05 1020 30.12 849 25.07 7 44.6 84 4.5 40
00:10 1020 30.12 849 25.07 6.9 44.3 84 4.4 40
00:15 1020 30.12 849 25.07 7 44.5 84 4.4 40
00:20 1020 30.12 849 25.07 7.1 44.7 83 4.4 39.9
00:25 1020 30.12 849 25.07 7.1 44.8 82 4.3 39.7
00:30 1020 30.12 849 25.07 7.3 45.2 81 4.3 39.7
00:35 1020 30.12 849 25.07 7.5 45.5 80 4.2 39.6
00:40 1020 30.12 849 25.07 7.6 45.6 80 4.3 39.8
00:45 1020 30.12 849 25.07 7.5 45.4 80 4.3 39.8
00:50 1020 30.12 849 25.07 7.5 45.5 80 4.2 39.6
00:55 1020 30.12 849 25.07 7.5 45.4 79 4 39.2
01:00 1020 30.12 849 25.07 7.4 45.3 79 4 39.3
01:05 1020 30.12 849 25.07 7.2 45 80 4.1 39.3
01:10 1020 30.12 849 25.07 7 44.6 81 3.9 39.1
01:15 1020 30.12 849 25.07 7 44.5 81 3.9 39
01:20 1020 30.12 849 25.07 7.1 44.7 80 3.9 39
01:25 1020 30.12 849 25.07 7.3 45.1 80 4 39.3
01:30 1020 30.12 849 25.07 7.4 45.3 79 4 39.2
01:35 1020 30.12 849 25.07 7.4 45.3 79 4.1 39.3
01:40 1020 30.12 849 25.07 7.3 45.2 80 4.1 39.3
01:45 1020 30.12 849 25.07 7.2 44.9 81 4.1 39.4
01:50 1020 30.12 849 25.07 7.1 44.7 82 4.1 39.4
01:55 1020 30.12 849 25.07 7 44.7 81 4 39.1
02:00 1020 30.12 849 25.07 7.1 44.8 81 4.1 39.3
02:05 1020 30.12 849 25.07 7.2 44.9 81 4.1 39.4
02:10 1020 30.12 849 25.07 6.9 44.5 82 4 39.2
02:15 1020 30.12 849 25.07 6.8 44.3 82 4 39.2
02:20 1020 30.12 849 25.07 6.8 44.2 83 4 39.3
02:25 1020 30.12 849 25.07 6.9 44.3 81 3.9 39
02:30 1020 30.12 849 25.07 7 44.6 80 3.9 38.9
02:35 1020 30.12 849 25.07 7.2 45 79 3.8 38.8
02:40 1020 30.12 849 25.07 7.4 45.2 78 3.8 38.9
02:45 1020 30.12 849 25.07 7.4 45.4 77 3.7 38.7
02:50 1020 30.12 849 25.07 7.5 45.5 78 3.8 38.9
02:55 1020 30.12 849 25.07 7.6 45.6 77 3.7 38.7
03:00 1020 30.12 849 25.07 7.7 45.8 77 3.8 38.9
03:05 1020 30.12 849 25.07 7.6 45.7 77 3.8 38.8
03:10 1020 30.12 849 25.07 7.6 45.7 77 3.9 39.1
03:15 1020 30.12 849 25.07 7.6 45.6 77 3.9 39
03:20 1020 30.12 849 25.07 7.6 45.6 78 3.9 39
03:25 1020 30.12 849 25.07 7.5 45.5 78 3.9 39
03:30 1020 30.12 849 25.07 7.4 45.2 78 3.8 38.9
03:35 1019 30.09 849 25.07 7.2 44.9 79 3.8 38.9
03:40 1020 30.12 849 25.07 7 44.6 79 3.7 38.7
03:45 1020 30.12 849 25.07 7.1 44.7 79 3.7 38.7
03:50 1019 30.09 849 25.07 7.2 44.9 79 3.7 38.7
03:55 1019 30.09 849 25.07 7.1 44.7 80 3.8 38.8
04:00 1020 30.12 849 25.07 7.2 45 78 3.6 38.5
04:05 1020 30.12 849 25.07 7.2 44.9 79 3.7 38.7
04:10 1020 30.12 849 25.07 6.8 44.3 79 3.5 38.3
04:15 1020 30.12 849 25.07 6.6 43.8 80 3.3 38
04:20 1019 30.09 849 25.07 6.5 43.7 80 3.3 37.9
04:25 1019 30.09 849 25.07 6.3 43.4 80 3.1 37.6
04:30 1019 30.09 849 25.07 6.2 43.2 80 3.1 37.6
04:35 1019 30.09 849 25.07 6.2 43.2 81 3.1 37.7
04:40 1019 30.09 849 25.07 6.2 43.1 82 3.4 38.1
04:45 1019 30.09 849 25.07 6.3 43.3 81 3.2 37.8
04:50 1020 30.12 849 25.07 6.4 43.5 81 3.5 38.2
04:55 1020 30.12 849 25.07 6.5 43.8 81 3.5 38.3
05:00 1020 30.12 849 25.07 6.7 44.1 79 3.4 38
05:05 1020 30.12 849 25.07 6.7 44 78 3.2 37.8
05:10 1019 30.09 849 25.07 6.8 44.2 78 3.2 37.7
05:15 1019 30.09 849 25.07 6.8 44.3 77 3.1 37.6
05:20 1019 30.09 849 25.07 6.8 44.3 77 3.2 37.7
05:25 1019 30.09 849 25.07 6.7 44.1 78 3.1 37.6
05:30 1019 30.09 849 25.07 6.7 44 78 3.1 37.6
05:35 1019 30.09 849 25.07 7 44.6 76 3.1 37.6
05:40 1020 30.12 849 25.07 7.5 45.5 75 3.3 38
05:45 1020 30.12 849 25.07 7.7 45.9 74 3.4 38.2
05:50 1020 30.12 849 25.07 7.8 46 74 3.4 38.2
05:55 1020 30.12 849 25.07 7.9 46.2 74 3.5 38.3
06:00 1020 30.12 849 25.07 8.2 46.7 73 3.6 38.4
06:05 1020 30.12 849 25.07 8.5 47.2 72 3.8 38.8
06:10 1020 30.12 849 25.07 8.7 47.6 71 3.7 38.7
06:15 1020 30.12 849 25.07 8.9 48 70 3.8 38.9
06:20 1020 30.12 849 25.07 9.3 48.8 69 4.1 39.3
06:25 1020 30.12 849 25.07 9.4 49 69 4.1 39.3
06:30 1020 30.12 849 25.07 9.8 49.6 68 4.2 39.5
06:35 1020 30.12 849 25.07 9.7 49.5 69 4.4 40
06:40 1020 30.12 849 25.07 9.9 49.8 69 4.5 40
06:45 1020 30.12 849 25.07 10.1 50.2 69 4.7 40.5
06:50 1020 30.12 849 25.07 10.6 51.1 67 4.9 40.7
06:55 1020 30.12 849 25.07 11 51.8 64 4.6 40.3
07:00 1020 30.12 849 25.07 11.2 52.1 65 4.9 40.8
07:05 1020 30.12 849 25.07 11.7 53 63 4.8 40.7
07:10 1020 30.12 849 25.07 12 53.7 60 4.7 40.4
07:15 1020 30.12 849 25.07 11.8 53.3 60 4.3 39.7
07:20 1020 30.12 849 25.07 11.9 53.5 63 5.3 41.5
07:25 1020 30.12 849 25.07 12.3 54.1 60 4.8 40.7
07:30 1020 30.12 849 25.07 12.9 55.3 61 5.7 42.2
07:35 1019 30.09 849 25.07 12.6 54.7 60 5.2 41.4
07:40 1019 30.09 849 25.07 13 55.5 57 4.7 40.4
07:45 1019 30.09 849 25.07 13.7 56.6 56 5 41
07:50 1019 30.09 849 25.07 13.8 56.8 55 4.9 40.8
07:55 1019 30.09 849 25.07 14.5 58.1 51 4.7 40.4
08:00 1019 30.09 849 25.07 14.5 58.1 51 4.7 40.4
08:05 1019 30.09 849 25.07 14.5 58.1 57 6.1 42.9
08:10 1019 30.09 849 25.07 14.1 57.3 57 5.8 42.4
08:15 1019 30.09 849 25.07 14.1 57.4 55 5.4 41.7
08:20 1019 30.09 849 25.07 14 57.3 56 5.4 41.7
08:25 1019 30.09 849 25.07 13.8 56.8 58 5.8 42.5
08:30 1019 30.09 849 25.07 13.9 57.1 59 6.2 43.2
08:35 1019 30.09 848 25.04 13.4 56.1 59 5.7 42.2
08:40 1019 30.09 849 25.07 13.8 56.8 58 5.8 42.4
08:45 1019 30.09 848 25.04 14.7 58.4 54 5.4 41.7
08:50 1019 30.09 848 25.04 15.2 59.4 55 6.4 43.5
08:55 1019 30.09 848 25.04 15.2 59.3 52 5.5 42
09:00 1019 30.09 848 25.04 15.8 60.4 52 6 42.8
09:05 1019 30.09 848 25.04 15.1 59.1 52 5.5 41.8
09:10 1019 30.09 848 25.04 15.5 59.8 51 5.6 42
09:15 1019 30.09 848 25.04 16.1 61 49 5.5 42
09:20 1019 30.09 848 25.04 15.9 60.6 53 6.5 43.7
09:25 1019 30.09 848 25.04 15.9 60.6 49 5.4 41.7
09:30 1019 30.09 848 25.04 16.1 61 48 5 41.1
09:35 1019 30.09 848 25.04 17.3 63.2 44 5.2 41.4
09:40 1019 30.09 848 25.04 17.5 63.4 45 5.5 41.9
09:45 1019 30.09 848 25.04 16.9 62.3 47 5.6 42.1
09:50 1019 30.09 848 25.04 17 62.7 46 5.5 41.8
09:55 1019 30.09 848 25.04 17.3 63.2 45 5.4 41.6
10:00 1019 30.09 848 25.04 18.2 64.7 42 5 41.1
10:05 1019 30.09 848 25.04 18.1 64.5 44 5.8 42.4
10:10 1019 30.09 848 25.04 17.7 63.9 43 5 41
10:15 1019 30.09 848 25.04 17.6 63.6 41 4.2 39.5
10:20 1019 30.09 848 25.04 17 62.6 46 5.3 41.5
10:25 1019 30.09 848 25.04 17.9 64.2 41 4.5 40.2
10:30 1019 30.09 848 25.04 18.2 64.8 39 4.2 39.6
10:35 1019 30.09 848 25.04 17.9 64.2 37 3.2 37.8
10:40 1019 30.09 848 25.04 18.7 65.6 38 4.2 39.5
10:45 1018 30.06 848 25.04 18.8 65.8 35 3.1 37.6
10:50 1018 30.06 848 25.04 18.2 64.8 38 3.7 38.7
10:55 1018 30.06 848 25.04 19.2 66.5 38 4.7 40.5
11:00 1018 30.06 848 25.04 18.8 65.9 33 2.5 36.5
11:05 1018 30.06 847 25.01 19.2 66.5 33 2.8 37
11:10 1018 30.06 847 25.01 19.1 66.4 35 3.5 38.2
11:15 1018 30.06 847 25.01 20.1 68.2 32 3.1 37.5
11:20 1018 30.06 847 25.01 19.4 66.9 31 2 35.6
11:25 1018 30.06 847 25.01 19.3 66.8 30 1.3 34.3
11:30 1018 30.06 847 25.01 19.6 67.3 28 0.7 33.2
11:35 1018 30.06 847 25.01 20.4 68.7 26 0.5 32.9
11:40 1018 30.06 847 25.01 21.2 70.1 27 1.5 34.8
11:45 1018 30.06 847 25.01 20 68.1 28 1.1 34
11:50 1018 30.06 847 25.01 19.8 67.7 28 1.1 34
11:55 1018 30.06 847 25.01 20.5 68.9 26 0.6 33
12:00 1018 30.06 847 25.01 20.9 69.7 28 1.9 35.4
12:05 1018 30.06 847 25.01 20.3 68.5 29 2 35.6
12:10 1018 30.06 847 25.01 20.1 68.1 28 1.4 34.5
12:15 1018 30.06 847 25.01 20.9 69.6 28 1.8 35.3
12:20 1018 30.06 847 25.01 21.9 71.5 26 1.7 35
12:25 1018 30.06 847 25.01 22.5 72.4 24 1 33.8
12:30 1017 30.03 847 25.01 22.2 72 24 0.7 33.3
12:35 1017 30.03 847 25.01 21.7 71.1 24 0.4 32.7
12:40 1017 30.03 847 25.01 21.5 70.6 26 1.1 34
12:45 1017 30.03 846 24.98 22.6 72.7 24 1 33.7
12:50 1017 30.03 846 24.98 22.7 72.9 23 0.8 33.4
12:55 1017 30.03 846 24.98 23 73.4 24 1.5 34.6
13:00 1017 30.03 846 24.98 23.5 74.4 22 1 33.8
13:05 1017 30.03 846 24.98 23 73.3 22 0.3 32.5
13:10 1017 30.03 846 24.98 23.2 73.7 24 1.7 35
13:15 1017 30.03 846 24.98 22.7 72.9 24 1.4 34.5
13:20 1017 30.03 846 24.98 22.7 72.9 22 0.3 32.6
13:25 1017 30.03 846 24.98 22.9 73.2 22 0.2 32.4
13:30 1017 30.03 846 24.98 23.4 74 22 0.5 32.8
13:35 1017 30.03 846 24.98 23.3 74 23 1.4 34.6
13:40 1017 30.03 846 24.98 22.9 73.3 24 1.3 34.4
13:45 1017 30.03 846 24.98 23 73.4 22 0.5 32.9
13:50 1017 30.03 846 24.98 23.7 74.6 22 1.1 34
13:55 1017 30.03 846 24.98 23.4 74.2 23 1.1 34.1
14:00 1017 30.03 846 24.98 22.5 72.5 24 1 33.7
14:05 1017 30.03 846 24.98 23.4 74.1 22 0.8 33.4
14:10 1017 30.03 846 24.98 23.1 73.6 22 0.4 32.8
14:15 1017 30.03 846 24.98 22.5 72.5 24 0.9 33.6
14:20 1017 30.03 846 24.98 22.5 72.5 24 1.1 33.9
14:25 1017 30.03 846 24.98 21.9 71.4 25 1.3 34.4
14:30 1017 30.03 846 24.98 22 71.6 24 0.9 33.6
14:35 1017 30.03 846 24.98 21.6 70.8 28 2.4 36.3
14:40 1017 30.03 846 24.98 21 69.9 26 0.9 33.7
14:45 1017 30.03 846 24.98 21.1 70 26 1 33.8
14:50 1017 30.03 846 24.98 20.8 69.5 32 3.7 38.7
14:55 1017 30.03 846 24.98 20 68 33 3.2 37.7
15:00 1017 30.03 846 24.98 19.6 67.3 35 3.8 38.9
15:05 1017 30.03 846 24.98 19.9 67.8 32 3.1 37.5
15:10 1017 30.03 846 24.98 19.4 66.9 35 3.7 38.7
15:15 1016 30 846 24.98 19.4 66.9 37 4.4 40
15:20 1016 30 846 24.98 19.1 66.3 36 3.9 39.1
15:25 1016 30 845 24.95 19.9 67.9 31 2.4 36.2
15:30 1016 30 845 24.95 20.2 68.3 33 3.7 38.6
15:35 1016 30 845 24.95 20.6 69 30 2.5 36.5
15:40 1016 30 845 24.95 20.6 69.1 30 2.8 37
15:45 1016 30 845 24.95 20.6 69 31 2.8 37.1
15:50 1016 30 845 24.95 21.1 70 29 2.5 36.5
15:55 1016 30 845 24.95 21.1 70 27 1.8 35.2
16:00 1016 30 845 24.95 21.9 71.3 28 2.6 36.7
16:05 1016 30 845 24.95 21.8 71.3 27 2.4 36.4
16:10 1016 30 845 24.95 21.4 70.5 27 2 35.6
16:15 1016 30 845 24.95 21.7 71.1 26 1.5 34.7
16:20 1016 30 845 24.95 21.6 70.9 29 2.8 37.1
16:25 1016 30 845 24.95 21.3 70.4 27 1.7 35
16:30 1016 30 845 24.95 21.5 70.6 26 1.3 34.3
16:35 1015 29.97 845 24.95 21.2 70.1 26 1.4 34.4
16:40 1015 29.97 845 24.95 21 69.7 29 2.6 36.6
16:45 1015 29.97 845 24.95 20.8 69.5 28 1.7 35.1
16:50 1016 30 845 24.95 20.5 68.9 30 2.3 36.1
16:55 1016 30 845 24.95 20.4 68.7 30 2.3 36.1
17:00 1016 30 845 24.95 20.1 68.2 35 4.3 39.8
17:05 1016 30 845 24.95 19.5 67.1 30 1.8 35.2
17:10 1016 30 846 24.98 18.1 64.6 36 2.8 37
17:15 1016 30 846 24.98 17 62.6 48 6.1 43
17:20 1016 30 845 24.95 16 60.8 53 6.6 43.9
17:25 1016 30 845 24.95 15.5 59.8 43 3.1 37.7
17:30 1016 30 845 24.95 15.9 60.5 49 5.1 41.2
17:35 1016 30 845 24.95 15.7 60.3 51 5.8 42.4
17:40 1016 30 845 24.95 16.2 61.2 51 6.2 43.2
17:45 1016 30 845 24.95 16.4 61.5 51 6.3 43.3
17:50 1016 30 845 24.95 16.6 61.9 51 6.4 43.6
17:55 1016 30 845 24.95 16.4 61.6 55 7.4 45.3
18:00 1016 30 845 24.95 16.8 62.3 51 6.9 44.4
18:05 1016 30 845 24.95 16.5 61.6 52 6.8 44.3
18:10 1016 30 845 24.95 15.8 60.5 53 6.5 43.6
18:15 1016 30 845 24.95 15.5 59.9 52 5.7 42.3
18:20 1016 30 845 24.95 15.4 59.8 51 5.6 42
18:25 1016 30 845 24.95 15.4 59.7 53 6.1 42.9
18:30 1016 30 845 24.95 15.3 59.6 53 5.8 42.4
18:35 1016 30 845 24.95 15.3 59.5 53 5.8 42.4
18:40 1016 30 845 24.95 15.3 59.6 51 5.3 41.5
18:45 1015 29.97 845 24.95 15.5 59.9 50 5.3 41.5
18:50 1015 29.97 845 24.95 15.6 60.1 50 5.2 41.4
18:55 1015 29.97 845 24.95 15.8 60.4 46 4.3 39.7
19:00 1015 29.97 845 24.95 16.1 60.9 47 4.8 40.6
19:05 1015 29.97 845 24.95 15.9 60.7 48 5.2 41.3
19:10 1015 29.97 845 24.95 15.8 60.5 49 5.2 41.4
19:15 1015 29.97 844 24.92 15.9 60.6 48 5 41.1
19:20 1015 29.97 845 24.95 15.9 60.6 50 5.6 42.1
19:25 1015 29.97 844 24.92 15.8 60.5 48 5.1 41.1
19:30 1015 29.97 844 24.92 15.9 60.5 48 4.9 40.8
19:35 1015 29.97 844 24.92 15.8 60.5 47 4.6 40.3
19:40 1015 29.97 844 24.92 15.8 60.4 48 4.8 40.6
19:45 1015 29.97 844 24.92 15.7 60.3 49 5 40.9
19:50 1015 29.97 844 24.92 15.6 60.1 49 5.1 41.1
19:55 1015 29.97 845 24.95 15.6 60 50 5.3 41.5
20:00 1015 29.97 844 24.92 15.5 59.9 50 5.3 41.5
20:05 1015 29.97 844 24.92 15.4 59.7 50 5.3 41.5
20:10 1015 29.97 844 24.92 15.4 59.6 50 5.2 41.4
20:15 1015 29.97 844 24.92 15.3 59.6 50 4.9 40.9
20:20 1015 29.97 844 24.92 15.2 59.4 49 4.7 40.5
20:25 1015 29.97 845 24.95 15.2 59.4 49 4.7 40.4
20:30 1015 29.97 845 24.95 15.3 59.5 49 4.6 40.3
20:35 1015 29.97 845 24.95 15.2 59.4 48 4.5 40.1
20:40 1016 30 845 24.95 15.2 59.4 49 4.8 40.6
20:45 1016 30 845 24.95 15.2 59.4 50 4.9 40.8
20:50 1016 30 845 24.95 15.2 59.3 55 6.2 43.1
20:55 1016 30 845 24.95 14.9 58.8 48 4 39.2
21:00 1015 29.97 845 24.95 15.1 59.2 51 5.1 41.2
21:05 1015 29.97 845 24.95 14.9 58.8 52 5.2 41.3
21:10 1016 30 845 24.95 14.9 58.8 50 4.5 40.2
21:15 1016 30 845 24.95 14.8 58.7 51 4.8 40.7
21:20 1016 30 845 24.95 14.5 58 53 5 41
21:25 1016 30 845 24.95 14.3 57.8 52 4.7 40.4
21:30 1015 29.97 845 24.95 14.3 57.7 52 4.7 40.4
21:35 1015 29.97 845 24.95 14.2 57.6 52 4.6 40.3
21:40 1015 29.97 845 24.95 14.2 57.6 52 4.5 40.2
21:45 1015 29.97 844 24.92 14.3 57.7 50 4.1 39.3
21:50 1015 29.97 844 24.92 14.2 57.5 52 4.4 40
21:55 1015 29.97 844 24.92 14 57.2 52 4.4 40
22:00 1015 29.97 844 24.92 13.8 56.8 54 4.7 40.4
22:05 1015 29.97 844 24.92 13.5 56.3 55 4.7 40.5
22:10 1015 29.97 844 24.92 13.4 56.2 55 4.7 40.4
22:15 1015 29.97 844 24.92 13.3 55.9 54 4.2 39.5
22:20 1015 29.97 844 24.92 13.2 55.8 56 4.6 40.3
22:25 1015 29.97 844 24.92 12.9 55.3 57 4.7 40.4
22:30 1015 29.97 844 24.92 12.7 54.9 55 4.1 39.3
22:35 1015 29.97 844 24.92 12.7 54.9 55 3.9 39
22:40 1015 29.97 844 24.92 12.7 54.8 54 3.8 38.8
22:45 1015 29.97 844 24.92 12.7 54.9 56 4.2 39.5
22:50 1015 29.97 844 24.92 12.5 54.5 56 4.1 39.4
22:55 1015 29.97 844 24.92 12.5 54.4 57 4.3 39.7
23:00 1015 29.97 844 24.92 12.4 54.3 59 4.7 40.4
23:05 1015 29.97 844 24.92 12.1 53.8 61 4.9 40.9
23:10 1015 29.97 844 24.92 11.9 53.5 60 4.4 39.9
23:15 1015 29.97 844 24.92 12.2 54 57 4 39.2
23:20 1015 29.97 844 24.92 12.6 54.7 54 3.7 38.6
23:25 1015 29.97 844 24.92 12.9 55.1 55 4 39.2
23:30 1015 29.97 844 24.92 12.6 54.7 58 4.6 40.2
23:35 1015 29.97 844 24.92 12.1 53.8 57 3.8 38.9
23:40 1015 29.97 844 24.92 12.4 54.3 55 3.6 38.4
23:45 1015 29.97 844 24.92 12.9 55.1 54 3.8 38.9
23:50 1015 29.97 844 24.92 12.6 54.6 55 3.8 38.9
23:55 1015 29.97 844 24.92 12.4 54.3 56 3.9 39
24:00 1015 29.97 844 24.92 12.1 53.8 57 4 39.2